createdAt,value
2022-11-28T00:01:28.887Z,88.31
2022-11-28T00:03:55.762Z,88.24
2022-11-28T00:06:22.429Z,88.43
2022-11-28T00:08:49.078Z,88.68
2022-11-28T00:11:16.430Z,88.58
2022-11-28T00:13:43.628Z,88.79
2022-11-28T00:16:14.999Z,88.92
2022-11-28T00:18:41.487Z,89.01
2022-11-28T00:21:10.124Z,88.89
2022-11-28T00:23:36.606Z,89.00
2022-11-28T00:26:09.035Z,88.87
2022-11-28T00:28:35.703Z,88.99
2022-11-28T00:31:02.222Z,88.68
2022-11-28T00:33:28.811Z,88.74
2022-11-28T00:36:01.098Z,88.77
2022-11-28T00:38:27.893Z,89.01
2022-11-28T00:41:09.756Z,88.90
2022-11-28T00:43:36.564Z,88.90
2022-11-28T00:46:03.890Z,88.84
2022-11-28T00:48:30.529Z,89.06
2022-11-28T00:51:09.188Z,89.16
2022-11-28T00:53:36.663Z,89.10
2022-11-28T00:56:07.101Z,89.05
2022-11-28T00:58:34.658Z,89.13
2022-11-28T01:01:07.794Z,89.21
2022-11-28T01:03:34.362Z,89.37
2022-11-28T01:06:00.838Z,88.95
2022-11-28T01:08:27.874Z,88.89
2022-11-28T01:10:54.354Z,88.98
2022-11-28T01:13:20.767Z,89.05
2022-11-28T01:15:47.310Z,88.90
2022-11-28T01:18:13.884Z,88.93
2022-11-28T01:20:40.327Z,89.05
2022-11-28T01:23:06.771Z,88.88
2022-11-28T01:25:33.470Z,88.79
2022-11-28T01:28:00.001Z,88.95
2022-11-28T01:30:26.705Z,88.85
2022-11-28T01:32:53.087Z,89.09
2022-11-28T01:35:19.706Z,89.08
2022-11-28T01:37:46.153Z,88.95
2022-11-28T01:40:13.219Z,88.91
2022-11-28T01:42:39.731Z,88.85
2022-11-28T01:45:16.612Z,88.77
2022-11-28T01:47:43.992Z,88.77
2022-11-28T01:50:10.748Z,88.94
2022-11-28T01:52:38.941Z,88.92
2022-11-28T01:55:06.221Z,88.94
2022-11-28T01:57:32.813Z,88.87
2022-11-28T02:00:11.667Z,88.82
2022-11-28T02:02:47.033Z,88.97
2022-11-28T02:05:15.528Z,88.80
2022-11-28T02:07:43.155Z,88.68
2022-11-28T02:10:12.488Z,88.71
2022-11-28T02:12:44.746Z,88.70
2022-11-28T02:15:20.294Z,88.64
2022-11-28T02:18:08.101Z,88.59
2022-11-28T02:21:11.269Z,88.84
2022-11-28T02:23:48.621Z,88.82
2022-11-28T02:26:45.323Z,88.88
2022-11-28T02:29:14.678Z,88.82
2022-11-28T02:31:59.517Z,89.21
2022-11-28T02:34:35.259Z,89.17
2022-11-28T02:37:07.486Z,89.09
2022-11-28T02:39:45.541Z,89.09
2022-11-28T02:42:18.858Z,89.08
2022-11-28T02:44:55.811Z,89.13
2022-11-28T02:47:32.366Z,89.05
2022-11-28T02:49:58.740Z,89.24
2022-11-28T02:52:29.708Z,89.26
2022-11-28T02:54:57.034Z,89.18
2022-11-28T02:57:23.552Z,89.13
2022-11-28T02:59:50.622Z,89.27
2022-11-28T03:02:18.989Z,89.31
2022-11-28T03:05:21.502Z,89.24
2022-11-28T03:08:27.581Z,89.06
2022-11-28T03:11:08.125Z,89.16
2022-11-28T03:14:00.686Z,89.18
2022-11-28T03:16:29.456Z,88.86
2022-11-28T03:19:02.104Z,88.89
2022-11-28T03:21:46.832Z,88.91
2022-11-28T03:24:22.012Z,89.03
2022-11-28T03:26:58.655Z,88.88
2022-11-28T03:29:34.690Z,89.10
2022-11-28T03:32:04.067Z,89.25
2022-11-28T03:34:34.930Z,89.08
2022-11-28T03:37:08.921Z,89.14
2022-11-28T03:39:38.692Z,89.03
2022-11-28T03:42:10.645Z,89.09
2022-11-28T03:44:45.678Z,89.13
2022-11-28T03:47:12.259Z,89.12
2022-11-28T03:49:41.239Z,89.22
2022-11-28T03:52:12.516Z,89.44
2022-11-28T03:54:59.798Z,89.27
2022-11-28T03:57:34.684Z,89.48
2022-11-28T04:00:06.111Z,89.15
2022-11-28T04:02:50.699Z,89.15
2022-11-28T04:05:38.454Z,89.26
2022-11-28T04:08:14.772Z,89.13
2022-11-28T04:10:46.817Z,89.24
2022-11-28T04:13:15.959Z,89.27
2022-11-28T04:16:31.964Z,89.30
2022-11-28T04:19:13.415Z,89.40
2022-11-28T04:22:10.741Z,89.09
2022-11-28T04:24:40.993Z,89.30
2022-11-28T04:27:10.491Z,89.08
2022-11-28T04:29:41.389Z,88.96
2022-11-28T04:32:08.166Z,89.00
2022-11-28T04:34:35.577Z,89.36
2022-11-28T04:37:08.327Z,89.37
2022-11-28T04:39:36.841Z,88.73
2022-11-28T04:42:11.463Z,89.04
2022-11-28T04:44:43.130Z,88.94
2022-11-28T04:47:10.244Z,88.92
2022-11-28T04:49:37.014Z,88.82
2022-11-28T04:52:37.199Z,88.69
2022-11-28T04:55:19.947Z,88.68
2022-11-28T04:57:55.718Z,88.79
2022-11-28T05:00:23.711Z,88.76
2022-11-28T05:02:51.899Z,88.61
2022-11-28T05:05:21.736Z,88.58
2022-11-28T05:07:48.442Z,88.48
2022-11-28T05:10:16.035Z,88.47
2022-11-28T05:12:42.834Z,88.59
2022-11-28T05:15:10.033Z,88.40
2022-11-28T05:17:41.689Z,88.37
2022-11-28T05:20:09.236Z,88.43
2022-11-28T05:22:35.716Z,88.49
2022-11-28T05:25:02.186Z,88.63
2022-11-28T05:27:29.270Z,88.43
2022-11-28T05:29:55.763Z,88.46
2022-11-28T05:32:22.261Z,88.31
2022-11-28T05:34:48.706Z,88.14
2022-11-28T05:37:15.886Z,88.07
2022-11-28T05:39:42.539Z,88.06
2022-11-28T05:42:09.248Z,87.59
2022-11-28T05:44:36.936Z,87.48
2022-11-28T05:47:03.392Z,87.36
2022-11-28T05:49:29.854Z,87.43
2022-11-28T05:51:56.245Z,87.52
2022-11-28T05:54:22.661Z,87.75
2022-11-28T05:56:49.135Z,87.79
2022-11-28T05:59:15.579Z,87.75
2022-11-28T06:01:42.140Z,87.57
2022-11-28T06:04:08.734Z,87.74
2022-11-28T06:06:36.108Z,87.77
2022-11-28T06:09:03.675Z,87.56
2022-11-28T06:11:31.842Z,87.79
2022-11-28T06:13:58.466Z,87.71
2022-11-28T06:16:26.727Z,87.93
2022-11-28T06:18:55.322Z,87.78
2022-11-28T06:21:22.280Z,87.47
2022-11-28T06:23:48.718Z,87.61
2022-11-28T06:26:17.669Z,87.67
2022-11-28T06:28:44.391Z,87.67
2022-11-28T06:31:18.760Z,87.61
2022-11-28T06:33:45.779Z,87.41
2022-11-28T06:36:13.924Z,87.56
2022-11-28T06:38:40.901Z,87.70
2022-11-28T06:41:09.521Z,87.68
2022-11-28T06:43:36.332Z,87.79
2022-11-28T06:46:03.874Z,87.74
2022-11-28T06:48:30.363Z,87.82
2022-11-28T06:51:04.970Z,87.85
2022-11-28T06:53:31.846Z,87.70
2022-11-28T06:55:58.463Z,87.65
2022-11-28T06:58:24.973Z,87.54
2022-11-28T07:00:51.534Z,87.56
2022-11-28T07:03:18.104Z,87.69
2022-11-28T07:05:44.546Z,87.57
2022-11-28T07:08:11.096Z,87.43
2022-11-28T07:10:37.588Z,87.43
2022-11-28T07:13:05.697Z,87.35
2022-11-28T07:15:32.565Z,87.63
2022-11-28T07:17:59.039Z,87.36
2022-11-28T07:20:25.487Z,87.47
2022-11-28T07:22:51.952Z,87.59
2022-11-28T07:25:18.443Z,87.65
2022-11-28T07:27:44.879Z,87.73
2022-11-28T07:30:11.649Z,87.79
2022-11-28T07:32:41.443Z,87.75
2022-11-28T07:35:08.809Z,87.56
2022-11-28T07:37:35.872Z,87.51
2022-11-28T07:40:02.357Z,87.50
2022-11-28T07:42:28.794Z,87.25
2022-11-28T07:45:03.763Z,87.18
2022-11-28T07:47:30.279Z,87.30
2022-11-28T07:49:56.831Z,87.23
2022-11-28T07:52:23.283Z,87.26
2022-11-28T07:54:50.248Z,87.49
2022-11-28T07:57:16.762Z,87.37
2022-11-28T07:59:43.743Z,87.33
2022-11-28T08:02:11.600Z,87.23
2022-11-28T08:04:40.462Z,87.32
2022-11-28T08:07:13.001Z,87.20
2022-11-28T08:09:39.512Z,87.11
2022-11-28T08:14:37.549Z,87.34
2022-11-28T08:17:04.141Z,87.38
2022-11-28T08:19:33.743Z,87.30
2022-11-28T08:22:01.924Z,86.97
2022-11-28T08:24:28.343Z,86.76
2022-11-28T08:26:54.810Z,86.63
2022-11-28T08:29:21.242Z,86.88
2022-11-28T08:31:47.830Z,87.01
2022-11-28T08:34:14.260Z,87.00
2022-11-28T08:36:40.793Z,87.05
2022-11-28T08:39:23.312Z,87.14
2022-11-28T08:41:50.764Z,87.41
2022-11-28T08:44:17.193Z,87.56
2022-11-28T08:46:44.025Z,87.67
2022-11-28T08:49:10.513Z,87.66
2022-11-28T08:51:37.069Z,87.88
2022-11-28T08:54:03.570Z,87.99
2022-11-28T08:56:29.987Z,88.04
2022-11-28T08:58:56.486Z,87.83
2022-11-28T09:01:24.576Z,87.60
2022-11-28T09:03:52.053Z,87.46
2022-11-28T09:06:18.905Z,87.30
2022-11-28T09:08:45.481Z,87.03
2022-11-28T09:11:14.559Z,86.91
2022-11-28T09:13:41.745Z,86.74
2022-11-28T09:16:08.696Z,86.55
2022-11-28T09:18:35.513Z,86.70
2022-11-28T09:21:07.375Z,86.45
2022-11-28T09:23:33.828Z,86.74
2022-11-28T09:26:00.297Z,86.73
2022-11-28T09:28:28.724Z,86.55
2022-11-28T09:31:02.695Z,86.31
2022-11-28T09:33:29.556Z,86.25
2022-11-28T09:35:56.186Z,86.54
2022-11-28T09:38:22.870Z,86.52
2022-11-28T09:40:49.727Z,86.56
2022-11-28T09:43:31.859Z,86.50
2022-11-28T09:46:00.940Z,86.58
2022-11-28T09:48:35.710Z,86.47
2022-11-28T09:51:25.794Z,86.39
2022-11-28T09:54:03.714Z,86.22
2022-11-28T09:56:30.281Z,86.08
2022-11-28T09:59:00.605Z,85.92
2022-11-28T10:01:38.308Z,85.45
2022-11-28T10:04:19.270Z,85.62
2022-11-28T10:06:55.122Z,84.72
2022-11-28T10:09:30.613Z,84.66
2022-11-28T10:12:06.234Z,84.32
2022-11-28T10:14:54.282Z,83.84
2022-11-28T10:17:51.221Z,83.26
2022-11-28T10:20:22.349Z,82.72
2022-11-28T10:22:53.390Z,82.22
2022-11-28T10:25:32.035Z,82.12
2022-11-28T10:27:58.522Z,81.20
2022-11-28T10:30:26.873Z,81.63
2022-11-28T10:33:24.782Z,81.22
2022-11-28T10:35:55.404Z,81.32
2022-11-28T10:38:25.887Z,81.04
2022-11-28T10:40:59.698Z,80.84
2022-11-28T10:43:31.188Z,80.68
2022-11-28T10:46:08.049Z,81.21
2022-11-28T10:48:51.968Z,81.35
2022-11-28T10:52:09.706Z,80.52
2022-11-28T10:54:54.510Z,79.85
2022-11-28T10:57:24.533Z,79.18
2022-11-28T11:00:10.297Z,78.57
2022-11-28T11:02:41.297Z,78.45
2022-11-28T11:05:13.103Z,78.54
2022-11-28T11:07:44.181Z,78.90
2022-11-28T11:10:25.931Z,79.47
2022-11-28T11:12:53.297Z,79.89
2022-11-28T11:15:23.555Z,79.97
2022-11-28T11:17:50.761Z,80.97
2022-11-28T11:20:22.865Z,81.50
2022-11-28T11:23:01.180Z,81.82
2022-11-28T11:25:29.622Z,82.18
2022-11-28T11:28:00.747Z,82.44
2022-11-28T11:30:32.486Z,82.53
2022-11-28T11:33:00.741Z,82.94
2022-11-28T11:35:42.661Z,83.38
2022-11-28T11:38:29.506Z,83.66
2022-11-28T11:40:57.627Z,83.66
2022-11-28T11:43:36.065Z,84.10
2022-11-28T11:46:12.570Z,83.86
2022-11-28T11:48:47.189Z,83.89
2022-11-28T11:51:24.128Z,83.63
2022-11-28T11:54:16.055Z,83.54
2022-11-28T11:56:45.517Z,83.40
2022-11-28T11:59:30.739Z,83.52
2022-11-28T12:02:03.358Z,83.36
2022-11-28T12:05:02.565Z,82.98
2022-11-28T12:07:33.699Z,82.85
2022-11-28T12:10:04.328Z,82.72
2022-11-28T12:12:35.310Z,82.89
2022-11-28T12:15:01.768Z,83.23
2022-11-28T12:18:05.999Z,83.35
2022-11-28T12:20:53.143Z,84.10
2022-11-28T12:23:55.020Z,83.97
2022-11-28T12:26:58.975Z,84.96
2022-11-28T12:29:38.433Z,85.22
2022-11-28T12:32:24.977Z,85.82
2022-11-28T12:35:25.715Z,85.65
2022-11-28T12:38:10.829Z,86.12
2022-11-28T12:40:48.088Z,86.34
2022-11-28T12:43:28.005Z,86.92
2022-11-28T12:46:16.284Z,87.17
2022-11-28T12:49:17.555Z,87.03
2022-11-28T12:51:59.600Z,87.10
2022-11-28T12:54:55.487Z,87.32
2022-11-28T12:57:28.478Z,87.35
2022-11-28T13:00:14.765Z,87.38
2022-11-28T13:02:56.565Z,87.62
2022-11-28T13:05:30.591Z,87.34
2022-11-28T13:08:28.509Z,87.27
2022-11-28T13:11:23.526Z,87.32
2022-11-28T13:14:09.634Z,87.50
2022-11-28T13:16:43.171Z,87.38
2022-11-28T13:19:38.050Z,87.56
2022-11-28T13:22:13.003Z,87.46
2022-11-28T13:24:45.165Z,87.47
2022-11-28T13:27:33.144Z,87.71
2022-11-28T13:30:20.219Z,87.56
2022-11-28T13:33:03.700Z,87.66
2022-11-28T13:35:30.518Z,87.91
2022-11-28T13:41:02.774Z,87.63
2022-11-28T13:43:29.135Z,88.21
2022-11-28T13:45:55.760Z,87.96
2022-11-28T13:48:50.240Z,88.09
2022-11-28T13:51:30.527Z,88.57
2022-11-28T13:54:16.918Z,88.49
2022-11-28T13:56:47.737Z,88.61
2022-11-28T13:59:21.777Z,88.63
2022-11-28T14:01:57.473Z,88.43
2022-11-28T14:04:24.835Z,88.43
2022-11-28T14:07:04.206Z,88.64
2022-11-28T14:09:49.356Z,88.98
2022-11-28T14:12:27.695Z,89.36
2022-11-28T14:15:12.565Z,89.57
2022-11-28T14:18:14.127Z,89.68
2022-11-28T14:21:08.548Z,89.52
2022-11-28T14:23:37.919Z,89.41
2022-11-28T14:26:11.625Z,89.37
2022-11-28T14:28:43.611Z,89.44
2022-11-28T14:31:10.907Z,89.49
2022-11-28T14:33:40.696Z,89.81
2022-11-28T14:36:29.663Z,90.06
2022-11-28T14:39:23.383Z,90.30
2022-11-28T14:42:05.415Z,90.48
2022-11-28T14:44:57.086Z,90.42
2022-11-28T14:47:37.250Z,90.20
2022-11-28T14:50:06.710Z,90.38
2022-11-28T14:52:40.449Z,90.42
2022-11-28T14:55:11.684Z,90.42
2022-11-28T14:57:41.356Z,90.48
2022-11-28T15:00:16.161Z,90.33
2022-11-28T15:03:20.721Z,90.70
2022-11-28T15:06:01.601Z,90.80
2022-11-28T15:08:40.193Z,90.79
2022-11-28T15:11:24.881Z,90.95
2022-11-28T15:14:02.021Z,90.84
2022-11-28T15:16:30.861Z,90.79
2022-11-28T15:19:20.221Z,90.91
2022-11-28T15:21:49.888Z,90.90
2022-11-28T15:24:25.090Z,90.80
2022-11-28T15:26:57.612Z,90.28
2022-11-28T15:29:27.337Z,91.00
2022-11-28T15:31:55.455Z,90.96
2022-11-28T15:34:30.128Z,90.87
2022-11-28T15:36:59.388Z,90.64
2022-11-28T15:39:29.396Z,90.85
2022-11-28T15:41:57.362Z,90.79
2022-11-28T15:44:24.151Z,91.04
2022-11-28T15:46:50.768Z,90.92
2022-11-28T15:49:38.619Z,91.38
2022-11-28T15:52:05.479Z,91.33
2022-11-28T15:54:40.790Z,91.57
2022-11-28T15:57:18.045Z,91.53
2022-11-28T15:59:45.344Z,91.64
2022-11-28T16:02:23.346Z,91.63
2022-11-28T16:04:55.036Z,91.95
2022-11-28T16:07:21.795Z,91.51
2022-11-28T16:09:58.857Z,91.83
2022-11-28T16:12:26.293Z,91.94
2022-11-28T16:14:56.121Z,92.09
2022-11-28T16:17:28.893Z,92.61
2022-11-28T16:19:55.840Z,92.55
2022-11-28T16:22:28.786Z,92.49
2022-11-28T16:24:55.942Z,92.62
2022-11-28T16:27:32.646Z,92.72
2022-11-28T16:30:00.649Z,92.68
2022-11-28T16:32:37.880Z,92.79
2022-11-28T16:35:05.586Z,92.78
2022-11-28T16:37:32.808Z,92.93
2022-11-28T16:40:15.477Z,92.88
2022-11-28T16:42:42.316Z,92.89
2022-11-28T16:45:21.953Z,92.97
2022-11-28T16:48:00.680Z,92.98
2022-11-28T16:50:29.507Z,93.04
2022-11-28T16:52:57.719Z,93.25
2022-11-28T16:55:27.101Z,93.35
2022-11-28T16:57:54.883Z,93.54
2022-11-28T17:00:21.340Z,93.38
2022-11-28T17:02:52.539Z,93.42
2022-11-28T17:05:19.178Z,93.59
2022-11-28T17:07:45.652Z,93.57
2022-11-28T17:10:12.678Z,93.85
2022-11-28T17:12:40.296Z,94.04
2022-11-28T17:15:08.703Z,93.93
2022-11-28T17:17:36.387Z,94.02
2022-11-28T17:20:03.566Z,94.03
2022-11-28T17:22:40.397Z,94.16
2022-11-28T17:25:07.952Z,93.89
2022-11-28T17:27:34.389Z,93.99
2022-11-28T17:30:00.804Z,94.02
2022-11-28T17:32:27.214Z,93.98
2022-11-28T17:34:53.694Z,93.65
2022-11-28T17:37:20.091Z,93.61
2022-11-28T17:40:05.374Z,93.49
2022-11-28T17:42:31.875Z,93.49
2022-11-28T17:44:58.339Z,93.58
2022-11-28T17:47:25.847Z,93.44
2022-11-28T17:49:52.536Z,93.23
2022-11-28T17:52:21.018Z,93.29
2022-11-28T17:54:47.561Z,93.24
2022-11-28T17:57:14.126Z,93.01
2022-11-28T17:59:40.624Z,93.07
2022-11-28T18:02:07.111Z,93.10
2022-11-28T18:04:34.787Z,93.22
2022-11-28T18:07:01.587Z,93.26
2022-11-28T18:09:29.121Z,93.28
2022-11-28T18:11:55.599Z,93.29
2022-11-28T18:14:22.064Z,93.49
2022-11-28T18:16:48.637Z,93.22
2022-11-28T18:19:15.201Z,93.17
2022-11-28T18:21:41.865Z,93.30
2022-11-28T18:24:08.974Z,93.30
2022-11-28T18:26:36.455Z,93.42
2022-11-28T18:29:03.673Z,93.38
2022-11-28T18:31:31.595Z,93.35
2022-11-28T18:34:02.361Z,93.35
2022-11-28T18:36:34.416Z,93.39
2022-11-28T18:39:04.344Z,93.65
2022-11-28T18:41:30.969Z,93.65
2022-11-28T18:44:01.926Z,93.56
2022-11-28T18:46:29.389Z,93.28
2022-11-28T18:48:56.720Z,93.53
2022-11-28T18:51:28.675Z,93.44
2022-11-28T18:53:56.219Z,93.32
2022-11-28T18:56:23.474Z,93.38
2022-11-28T18:58:53.474Z,93.33
2022-11-28T19:01:28.558Z,93.15
2022-11-28T19:04:01.338Z,93.29
2022-11-28T19:06:29.262Z,93.27
2022-11-28T19:08:58.936Z,93.23
2022-11-28T19:11:28.578Z,93.19
2022-11-28T19:13:56.213Z,93.15
2022-11-28T19:16:27.556Z,93.31
2022-11-28T19:18:55.370Z,93.18
2022-11-28T19:21:24.697Z,93.62
2022-11-28T19:23:51.564Z,93.46
2022-11-28T19:26:23.144Z,93.47
2022-11-28T19:28:50.440Z,93.62
2022-11-28T19:31:20.443Z,93.31
2022-11-28T19:34:00.269Z,93.70
2022-11-28T19:36:40.473Z,93.44
2022-11-28T19:39:09.528Z,93.71
2022-11-28T19:41:36.420Z,93.78
2022-11-28T19:44:03.938Z,93.97
2022-11-28T19:46:33.813Z,93.90
2022-11-28T19:49:04.291Z,94.08
2022-11-28T19:51:31.136Z,94.07
2022-11-28T19:54:02.904Z,94.15
2022-11-28T19:56:31.422Z,94.22
2022-11-28T19:58:58.753Z,93.90
2022-11-28T20:01:25.629Z,94.10
2022-11-28T20:03:53.398Z,93.96
2022-11-28T20:06:23.516Z,93.82
2022-11-28T20:08:51.695Z,93.77
2022-11-28T20:11:20.695Z,93.58
2022-11-28T20:13:48.184Z,93.58
2022-11-28T20:16:16.521Z,93.61
2022-11-28T20:18:44.334Z,93.31
2022-11-28T20:21:18.729Z,93.50
2022-11-28T20:23:53.730Z,93.18
2022-11-28T20:26:22.970Z,93.26
2022-11-28T20:28:49.560Z,93.24
2022-11-28T20:31:33.673Z,93.31
2022-11-28T20:34:00.869Z,93.30
2022-11-28T20:36:29.330Z,93.19
2022-11-28T20:38:56.918Z,93.01
2022-11-28T20:41:24.641Z,93.02
2022-11-28T20:43:51.180Z,92.99
2022-11-28T20:46:19.885Z,92.72
2022-11-28T20:48:46.657Z,93.05
2022-11-28T20:51:15.829Z,93.27
2022-11-28T20:53:42.485Z,93.34
2022-11-28T20:56:14.579Z,93.47
2022-11-28T20:58:41.522Z,93.78
2022-11-28T21:01:08.015Z,93.81
2022-11-28T21:03:34.555Z,93.65
2022-11-28T21:06:01.611Z,93.96
2022-11-28T21:08:31.178Z,93.86
2022-11-28T21:10:57.666Z,93.83
2022-11-28T21:13:24.150Z,93.57
2022-11-28T21:15:51.945Z,93.62
2022-11-28T21:18:18.357Z,93.50
2022-11-28T21:20:46.490Z,93.34
2022-11-28T21:23:13.974Z,93.22
2022-11-28T21:25:42.195Z,93.47
2022-11-28T21:28:09.863Z,93.45
2022-11-28T21:30:44.670Z,93.52
2022-11-28T21:33:12.471Z,93.53
2022-11-28T21:35:39.611Z,93.84
2022-11-28T21:38:06.881Z,93.74
2022-11-28T21:40:33.558Z,93.37
2022-11-28T21:43:00.100Z,93.52
2022-11-28T21:45:28.491Z,93.52
2022-11-28T21:47:55.068Z,93.65
2022-11-28T21:50:22.106Z,93.67
2022-11-28T21:52:48.636Z,93.67
2022-11-28T21:55:15.257Z,93.90
2022-11-28T21:57:42.201Z,93.67
2022-11-28T22:00:25.657Z,93.64
2022-11-28T22:03:02.570Z,93.63
2022-11-28T22:05:31.734Z,93.78
2022-11-28T22:07:58.878Z,93.97
2022-11-28T22:10:26.209Z,94.23
2022-11-28T22:12:53.519Z,94.32
2022-11-28T22:15:20.571Z,94.29
2022-11-28T22:17:47.330Z,94.51
2022-11-28T22:20:14.008Z,94.46
2022-11-28T22:22:40.549Z,94.47
2022-11-28T22:25:07.705Z,94.48
2022-11-28T22:27:35.394Z,94.40
2022-11-28T22:30:02.820Z,94.35
2022-11-28T22:32:29.678Z,94.44
2022-11-28T22:34:56.172Z,94.57
2022-11-28T22:37:22.662Z,94.48
2022-11-28T22:39:49.320Z,94.46
2022-11-28T22:42:15.799Z,94.54
2022-11-28T22:44:42.910Z,94.35
2022-11-28T22:47:09.650Z,94.63
2022-11-28T22:49:36.182Z,94.65
2022-11-28T22:52:02.711Z,94.75
2022-11-28T22:54:29.376Z,94.93
2022-11-28T22:56:55.991Z,94.83
2022-11-28T22:59:22.528Z,95.00
2022-11-28T23:01:50.347Z,94.99
2022-11-28T23:04:17.045Z,94.95
2022-11-28T23:06:43.730Z,95.19
2022-11-28T23:09:12.026Z,95.45
2022-11-28T23:11:39.740Z,95.42
2022-11-28T23:14:07.811Z,95.42
2022-11-28T23:16:37.000Z,95.40
2022-11-28T23:19:08.369Z,95.49
2022-11-28T23:21:37.341Z,95.23
2022-11-28T23:24:05.202Z,95.48
2022-11-28T23:26:33.240Z,95.15
2022-11-28T23:29:01.919Z,95.11
2022-11-28T23:31:30.589Z,95.31
2022-11-28T23:33:57.709Z,95.42
2022-11-28T23:36:42.043Z,95.55
2022-11-28T23:39:27.676Z,95.33
2022-11-28T23:42:03.153Z,95.11
2022-11-28T23:44:29.601Z,95.19
2022-11-28T23:46:56.100Z,95.34
2022-11-28T23:49:22.563Z,95.36
2022-11-28T23:51:49.015Z,95.04
2022-11-28T23:54:15.556Z,94.92
2022-11-28T23:56:42.823Z,94.65
2022-11-28T23:59:11.435Z,94.44
